createdAt,value
2022-12-20T00:01:01.011Z,34.90
2022-12-20T00:03:27.510Z,34.38
2022-12-20T00:05:54.864Z,33.30
2022-12-20T00:08:21.362Z,31.88
2022-12-20T00:10:47.928Z,34.53
2022-12-20T00:13:14.576Z,35.65
2022-12-20T00:15:41.154Z,35.10
2022-12-20T00:18:07.726Z,33.10
2022-12-20T00:20:34.403Z,34.47
2022-12-20T00:23:01.696Z,35.45
2022-12-20T00:25:28.866Z,33.38
2022-12-20T00:27:55.521Z,34.60
2022-12-20T00:30:22.030Z,32.30
2022-12-20T00:32:48.504Z,33.35
2022-12-20T00:35:15.035Z,31.35
2022-12-20T00:37:41.791Z,32.15
2022-12-20T00:40:08.861Z,32.08
2022-12-20T00:42:35.399Z,34.67
2022-12-20T00:45:02.078Z,31.60
2022-12-20T00:47:28.620Z,34.28
2022-12-20T00:49:55.126Z,33.30
2022-12-20T00:52:22.300Z,34.85
2022-12-20T00:54:48.788Z,34.85
2022-12-20T00:57:15.317Z,34.30
2022-12-20T00:59:41.851Z,33.53
2022-12-20T01:02:08.538Z,31.30
2022-12-20T01:04:35.239Z,33.22
2022-12-20T01:07:02.619Z,32.38
2022-12-20T01:09:29.142Z,32.28
2022-12-20T01:11:55.701Z,32.80
2022-12-20T01:14:22.195Z,31.30
2022-12-20T01:16:48.924Z,32.85
2022-12-20T01:19:17.668Z,31.52
2022-12-20T01:21:44.880Z,32.22
2022-12-20T01:24:13.338Z,31.77
2022-12-20T01:26:40.058Z,33.13
2022-12-20T01:29:06.666Z,31.05
2022-12-20T01:31:33.277Z,31.38
2022-12-20T01:34:00.107Z,32.33
2022-12-20T01:36:29.827Z,32.63
2022-12-20T01:39:02.877Z,29.85
2022-12-20T01:41:30.911Z,31.98
2022-12-20T01:44:01.124Z,32.15
2022-12-20T01:46:30.082Z,33.05
2022-12-20T01:49:02.969Z,31.77
2022-12-20T01:51:32.104Z,30.92
2022-12-20T01:54:04.739Z,32.20
2022-12-20T01:56:31.617Z,32.75
2022-12-20T01:58:58.982Z,31.48
2022-12-20T02:01:25.976Z,31.67
2022-12-20T02:03:55.305Z,32.90
2022-12-20T02:06:24.707Z,32.42
2022-12-20T02:08:54.837Z,29.85
2022-12-20T02:11:26.967Z,32.65
2022-12-20T02:14:06.332Z,30.05
2022-12-20T02:16:42.664Z,30.92
2022-12-20T02:19:46.437Z,29.73
2022-12-20T02:22:37.796Z,28.63
2022-12-20T02:25:14.852Z,29.45
2022-12-20T02:27:55.201Z,31.25
2022-12-20T02:30:24.027Z,30.27
2022-12-20T02:32:59.405Z,30.25
2022-12-20T02:35:32.070Z,31.85
2022-12-20T02:38:05.019Z,31.65
2022-12-20T02:40:40.172Z,31.95
2022-12-20T02:43:28.935Z,31.15
2022-12-20T02:45:58.707Z,30.10
2022-12-20T02:48:28.979Z,33.08
2022-12-20T02:50:59.095Z,31.90
2022-12-20T02:53:26.447Z,33.53
2022-12-20T02:56:01.641Z,33.45
2022-12-20T02:58:34.749Z,32.55
2022-12-20T03:01:08.855Z,32.03
2022-12-20T03:03:36.711Z,31.65
2022-12-20T03:06:03.713Z,33.38
2022-12-20T03:08:30.524Z,31.88
2022-12-20T03:10:57.117Z,32.03
2022-12-20T03:13:24.968Z,30.40
2022-12-20T03:15:51.878Z,33.35
2022-12-20T03:18:18.787Z,33.05
2022-12-20T03:20:45.312Z,32.20
2022-12-20T03:23:11.857Z,32.97
2022-12-20T03:25:38.431Z,31.98
2022-12-20T03:28:04.956Z,32.00
2022-12-20T03:30:31.567Z,32.97
2022-12-20T03:32:58.222Z,30.58
2022-12-20T03:35:24.760Z,31.73
2022-12-20T03:37:51.262Z,31.13
2022-12-20T03:40:17.880Z,31.48
2022-12-20T03:42:44.407Z,31.90
2022-12-20T03:45:11.228Z,31.08
2022-12-20T03:47:37.947Z,31.50
2022-12-20T03:50:06.887Z,29.30
2022-12-20T03:52:33.969Z,29.50
2022-12-20T03:55:00.848Z,30.23
2022-12-20T03:57:27.417Z,30.67
2022-12-20T03:59:54.480Z,31.83
2022-12-20T04:02:22.752Z,31.33
2022-12-20T04:04:49.752Z,31.88
2022-12-20T04:07:16.669Z,30.33
2022-12-20T04:09:43.215Z,33.25
2022-12-20T04:12:09.773Z,30.90
2022-12-20T04:14:37.421Z,33.35
2022-12-20T04:17:04.526Z,32.03
2022-12-20T04:19:31.276Z,33.40
2022-12-20T04:22:04.739Z,31.83
2022-12-20T04:24:31.865Z,31.75
2022-12-20T04:26:58.354Z,31.63
2022-12-20T04:29:24.932Z,33.25
2022-12-20T04:31:51.504Z,33.28
2022-12-20T04:34:18.076Z,32.95
2022-12-20T04:36:44.730Z,33.08
2022-12-20T04:39:11.294Z,34.72
2022-12-20T04:41:37.877Z,30.92
2022-12-20T04:44:04.544Z,36.03
2022-12-20T04:46:31.109Z,34.42
2022-12-20T04:48:59.309Z,32.22
2022-12-20T04:51:28.023Z,34.75
2022-12-20T04:53:55.705Z,33.45
2022-12-20T04:56:31.160Z,33.53
2022-12-20T04:58:58.961Z,32.83
2022-12-20T05:01:26.357Z,34.58
2022-12-20T05:03:53.426Z,33.55
2022-12-20T05:06:20.074Z,36.53
2022-12-20T05:08:46.863Z,35.20
2022-12-20T05:11:13.441Z,31.90
2022-12-20T05:13:40.156Z,31.30
2022-12-20T05:16:07.266Z,33.33
2022-12-20T05:18:33.985Z,34.30
2022-12-20T05:21:20.436Z,33.42
2022-12-20T05:24:05.790Z,32.10
2022-12-20T05:26:36.625Z,31.48
2022-12-20T05:29:03.986Z,31.52
2022-12-20T05:31:31.175Z,31.85
2022-12-20T05:33:57.746Z,33.72
2022-12-20T05:36:24.268Z,30.98
2022-12-20T05:38:50.871Z,31.88
2022-12-20T05:41:17.423Z,32.83
2022-12-20T05:43:43.886Z,31.33
2022-12-20T05:46:10.824Z,31.23
2022-12-20T05:48:37.603Z,30.88
2022-12-20T05:51:04.615Z,32.50
2022-12-20T05:53:31.259Z,32.85
2022-12-20T05:55:59.421Z,35.47
2022-12-20T05:58:25.932Z,34.13
2022-12-20T06:00:52.514Z,34.45
2022-12-20T06:03:19.332Z,34.10
2022-12-20T06:05:46.735Z,35.50
2022-12-20T06:08:14.010Z,34.88
2022-12-20T06:10:41.968Z,33.83
2022-12-20T06:13:09.642Z,35.05
2022-12-20T06:15:36.452Z,34.95
2022-12-20T06:18:03.685Z,35.42
2022-12-20T06:20:30.206Z,34.97
2022-12-20T06:22:56.727Z,34.78
2022-12-20T06:25:23.242Z,32.97
2022-12-20T06:27:49.789Z,34.05
2022-12-20T06:30:16.804Z,32.78
2022-12-20T06:32:43.552Z,33.92
2022-12-20T06:35:10.100Z,33.72
2022-12-20T06:37:36.905Z,32.08
2022-12-20T06:40:05.398Z,33.30
2022-12-20T06:42:31.986Z,35.75
2022-12-20T06:44:58.539Z,38.05
2022-12-20T06:47:25.113Z,38.53
2022-12-20T06:49:54.768Z,39.15
2022-12-20T06:52:21.346Z,38.60
2022-12-20T06:54:53.421Z,36.17
2022-12-20T06:57:24.215Z,32.05
2022-12-20T06:59:50.719Z,34.78
2022-12-20T07:02:19.935Z,31.60
2022-12-20T07:04:48.840Z,33.60
2022-12-20T07:07:21.426Z,35.97
2022-12-20T07:09:53.587Z,32.83
2022-12-20T07:12:26.058Z,33.45
2022-12-20T07:14:58.952Z,34.20
2022-12-20T07:17:30.050Z,32.33
2022-12-20T07:19:56.620Z,31.25
2022-12-20T07:22:23.102Z,33.70
2022-12-20T07:24:52.102Z,34.00
2022-12-20T07:27:19.025Z,32.58
2022-12-20T07:29:45.533Z,31.50
2022-12-20T07:32:13.527Z,32.35
2022-12-20T07:34:40.603Z,31.10
2022-12-20T07:37:08.598Z,31.42
2022-12-20T07:39:35.186Z,31.08
2022-12-20T07:42:02.159Z,31.00
2022-12-20T07:44:29.103Z,30.52
2022-12-20T07:46:55.649Z,30.25
2022-12-20T07:49:22.244Z,31.95
2022-12-20T07:51:53.619Z,30.55
2022-12-20T07:54:26.187Z,31.67
2022-12-20T07:56:58.707Z,32.15
2022-12-20T07:59:29.249Z,30.92
2022-12-20T08:02:00.871Z,32.22
2022-12-20T08:04:31.169Z,29.65
2022-12-20T08:07:01.283Z,31.05
2022-12-20T08:12:01.319Z,27.30
2022-12-20T08:14:27.900Z,30.02
2022-12-20T08:16:54.469Z,31.75
2022-12-20T08:19:23.304Z,29.80
2022-12-20T08:21:52.033Z,30.02
2022-12-20T08:24:18.726Z,32.70
2022-12-20T08:26:45.263Z,31.02
2022-12-20T08:29:11.797Z,29.77
2022-12-20T08:31:44.424Z,30.27
2022-12-20T08:34:14.290Z,27.25
2022-12-20T08:36:41.063Z,27.92
2022-12-20T08:39:08.049Z,28.20
2022-12-20T08:41:36.765Z,25.40
2022-12-20T08:44:04.823Z,28.90
2022-12-20T08:46:31.351Z,27.35
2022-12-20T08:48:57.921Z,30.35
2022-12-20T08:51:24.668Z,28.48
2022-12-20T08:53:53.200Z,24.17
2022-12-20T08:56:20.180Z,26.85
2022-12-20T08:58:47.142Z,28.77
2022-12-20T09:01:16.228Z,28.98
2022-12-20T09:03:43.673Z,26.27
2022-12-20T09:06:20.192Z,26.77
2022-12-20T09:08:47.721Z,29.63
2022-12-20T09:11:15.899Z,28.67
2022-12-20T09:13:44.848Z,29.20
2022-12-20T09:16:13.919Z,28.52
2022-12-20T09:18:41.260Z,25.63
2022-12-20T09:21:09.386Z,31.88
2022-12-20T09:23:37.083Z,28.75
2022-12-20T09:26:11.128Z,23.48
2022-12-20T09:28:37.685Z,25.98
2022-12-20T09:31:06.601Z,22.35
2022-12-20T09:33:34.921Z,23.92
2022-12-20T09:36:02.394Z,23.50
2022-12-20T09:38:31.176Z,22.98
2022-12-20T09:41:06.705Z,22.40
2022-12-20T09:43:34.090Z,21.00
2022-12-20T09:46:03.969Z,23.33
2022-12-20T09:48:35.403Z,23.25
2022-12-20T09:51:28.249Z,22.33
2022-12-20T09:54:36.002Z,23.45
2022-12-20T09:57:13.087Z,24.83
2022-12-20T09:59:47.539Z,24.60
2022-12-20T10:02:58.296Z,22.27
2022-12-20T10:05:57.760Z,22.17
2022-12-20T10:08:42.458Z,22.70
2022-12-20T10:11:39.582Z,22.65
2022-12-20T10:14:27.213Z,21.98
2022-12-20T10:17:09.092Z,23.08
2022-12-20T10:19:56.475Z,20.70
2022-12-20T10:22:29.107Z,23.23
2022-12-20T10:25:22.928Z,23.25
2022-12-20T10:27:53.529Z,21.45
2022-12-20T10:30:22.914Z,21.90
2022-12-20T10:32:52.699Z,21.73
2022-12-20T10:35:40.492Z,21.77
2022-12-20T10:38:12.518Z,22.20
2022-12-20T10:41:20.225Z,22.45
2022-12-20T10:43:43.193Z,22.50
2022-12-20T10:46:11.554Z,23.45
2022-12-20T10:48:41.185Z,22.38
2022-12-20T10:51:15.334Z,22.33
2022-12-20T10:53:51.387Z,22.67
2022-12-20T10:56:22.012Z,25.15
2022-12-20T10:59:22.936Z,24.08
2022-12-20T11:01:50.603Z,24.17
2022-12-20T11:04:30.196Z,21.88
2022-12-20T11:06:58.033Z,23.50
2022-12-20T11:09:36.268Z,21.92
2022-12-20T11:12:13.612Z,22.80
2022-12-20T11:14:42.625Z,21.92
2022-12-20T11:17:22.653Z,23.20
2022-12-20T11:20:08.863Z,24.40
2022-12-20T11:22:54.319Z,23.40
2022-12-20T11:25:30.877Z,20.60
2022-12-20T11:28:19.332Z,21.38
2022-12-20T11:31:00.780Z,21.15
2022-12-20T11:33:27.272Z,21.27
2022-12-20T11:36:15.466Z,21.60
2022-12-20T11:38:46.284Z,20.27
2022-12-20T11:41:27.817Z,20.52
2022-12-20T11:44:33.078Z,19.90
2022-12-20T11:47:21.249Z,21.15
2022-12-20T11:50:09.724Z,20.65
2022-12-20T11:52:42.293Z,21.55
2022-12-20T11:55:29.822Z,20.33
2022-12-20T11:58:21.512Z,19.92
2022-12-20T12:00:54.885Z,19.02
2022-12-20T12:03:32.917Z,20.63
2022-12-20T12:06:16.301Z,21.30
2022-12-20T12:08:55.516Z,19.05
2022-12-20T12:14:47.647Z,20.95
2022-12-20T12:17:24.889Z,21.40
2022-12-20T12:19:57.113Z,22.17
2022-12-20T12:22:33.115Z,21.25
2022-12-20T12:25:04.583Z,19.83
2022-12-20T12:27:31.333Z,19.65
2022-12-20T12:29:58.908Z,19.42
2022-12-20T12:32:36.889Z,21.42
2022-12-20T12:35:13.347Z,20.27
2022-12-20T12:37:55.652Z,22.58
2022-12-20T12:40:52.318Z,20.60
2022-12-20T12:43:29.241Z,20.75
2022-12-20T12:46:00.031Z,20.80
2022-12-20T12:49:01.755Z,20.88
2022-12-20T12:51:32.941Z,20.95
2022-12-20T12:54:16.632Z,20.73
2022-12-20T12:56:51.023Z,21.90
2022-12-20T12:59:20.279Z,22.20
2022-12-20T13:02:06.389Z,22.70
2022-12-20T13:04:55.642Z,21.63
2022-12-20T13:07:35.164Z,21.63
2022-12-20T13:10:24.890Z,20.48
2022-12-20T13:12:52.541Z,21.83
2022-12-20T13:15:22.105Z,20.70
2022-12-20T13:17:48.622Z,20.55
2022-12-20T13:20:39.498Z,22.80
2022-12-20T13:23:08.867Z,21.75
2022-12-20T13:25:36.984Z,21.95
2022-12-20T13:28:19.146Z,20.55
2022-12-20T13:30:47.276Z,21.55
2022-12-20T13:33:24.092Z,23.27
2022-12-20T13:35:59.891Z,21.13
2022-12-20T13:38:48.202Z,21.40
2022-12-20T13:41:35.547Z,21.85
2022-12-20T13:44:14.528Z,26.15
2022-12-20T13:46:57.146Z,23.10
2022-12-20T13:49:36.651Z,29.05
2022-12-20T13:52:12.286Z,23.67
2022-12-20T13:54:44.181Z,29.63
2022-12-20T13:57:17.243Z,27.17
2022-12-20T13:59:59.985Z,27.00
2022-12-20T14:02:36.392Z,29.73
2022-12-20T14:05:13.240Z,32.40
2022-12-20T14:07:40.216Z,30.63
2022-12-20T14:10:27.606Z,28.02
2022-12-20T14:12:55.351Z,28.30
2022-12-20T14:15:25.049Z,26.88
2022-12-20T14:17:51.588Z,23.35
2022-12-20T14:20:38.442Z,28.73
2022-12-20T14:23:11.580Z,26.00
2022-12-20T14:25:43.494Z,24.40
2022-12-20T14:28:26.453Z,27.75
2022-12-20T14:30:53.766Z,27.30
2022-12-20T14:33:38.064Z,24.25
2022-12-20T14:36:16.801Z,22.60
2022-12-20T14:38:45.768Z,28.20
2022-12-20T14:41:38.405Z,28.35
2022-12-20T14:44:07.770Z,28.35
2022-12-20T14:46:35.983Z,27.48
2022-12-20T14:49:30.281Z,29.48
2022-12-20T14:52:12.128Z,26.98
2022-12-20T14:55:09.126Z,30.50
2022-12-20T14:57:36.697Z,29.77
2022-12-20T15:00:18.344Z,31.95
2022-12-20T15:02:52.925Z,30.00
2022-12-20T15:05:38.674Z,29.85
2022-12-20T15:08:10.927Z,34.75
2022-12-20T15:10:37.793Z,35.25
2022-12-20T15:13:05.089Z,30.95
2022-12-20T15:15:31.691Z,31.98
2022-12-20T15:17:58.212Z,34.42
2022-12-20T15:20:24.738Z,29.42
2022-12-20T15:22:51.271Z,32.15
2022-12-20T15:25:18.048Z,30.98
2022-12-20T15:27:44.696Z,30.30
2022-12-20T15:30:14.418Z,28.75
2022-12-20T15:32:54.662Z,29.40
2022-12-20T15:35:22.497Z,29.50
2022-12-20T15:37:49.061Z,28.83
2022-12-20T15:40:15.624Z,29.20
2022-12-20T15:42:43.330Z,30.85
2022-12-20T15:45:14.493Z,30.33
2022-12-20T15:47:41.026Z,27.65
2022-12-20T15:50:08.522Z,31.10
2022-12-20T15:52:35.088Z,30.20
2022-12-20T15:55:01.661Z,31.55
2022-12-20T15:57:28.883Z,28.35
2022-12-20T16:00:01.831Z,30.30
2022-12-20T16:02:31.007Z,30.52
2022-12-20T16:04:58.837Z,31.45
2022-12-20T16:07:25.571Z,30.40
2022-12-20T16:09:52.198Z,29.60
2022-12-20T16:12:26.926Z,29.88
2022-12-20T16:14:53.592Z,32.05
2022-12-20T16:17:20.157Z,35.55
2022-12-20T16:19:46.761Z,35.90
2022-12-20T16:22:23.885Z,37.67
2022-12-20T16:24:51.726Z,33.08
2022-12-20T16:27:18.421Z,34.05
2022-12-20T16:29:45.530Z,31.52
2022-12-20T16:32:17.540Z,30.88
2022-12-20T16:34:45.311Z,28.83
2022-12-20T16:37:12.047Z,29.13
2022-12-20T16:39:38.649Z,31.15
2022-12-20T16:42:13.029Z,32.88
2022-12-20T16:44:42.729Z,30.77
2022-12-20T16:47:09.913Z,32.88
2022-12-20T16:49:36.861Z,30.13
2022-12-20T16:52:04.444Z,31.42
2022-12-20T16:54:31.970Z,30.35
2022-12-20T16:56:58.526Z,30.13
2022-12-20T16:59:25.851Z,30.58
2022-12-20T17:01:55.619Z,29.95
2022-12-20T17:06:49.709Z,29.23
2022-12-20T17:09:17.615Z,31.45
2022-12-20T17:11:45.127Z,30.80
2022-12-20T17:14:14.387Z,29.33
2022-12-20T17:16:41.557Z,31.92
2022-12-20T17:19:10.809Z,30.48
2022-12-20T17:24:26.468Z,32.07
2022-12-20T17:26:53.030Z,31.52
2022-12-20T17:29:20.489Z,31.30
2022-12-20T17:31:48.112Z,36.47
2022-12-20T17:34:20.778Z,40.00
2022-12-20T17:36:48.766Z,36.28
2022-12-20T17:39:15.732Z,37.15
2022-12-20T17:41:43.298Z,33.65
2022-12-20T17:44:20.620Z,34.65
2022-12-20T17:46:47.643Z,30.00
2022-12-20T17:49:15.390Z,33.55
2022-12-20T17:51:42.733Z,31.55
2022-12-20T17:54:18.476Z,35.13
2022-12-20T17:56:45.370Z,33.40
2022-12-20T17:59:13.750Z,32.03
2022-12-20T18:01:41.692Z,33.90
2022-12-20T18:04:11.403Z,30.83
2022-12-20T18:06:39.910Z,33.33
2022-12-20T18:09:21.402Z,32.53
2022-12-20T18:11:48.434Z,32.65
2022-12-20T18:14:15.915Z,36.42
2022-12-20T18:16:42.870Z,36.20
2022-12-20T18:19:15.459Z,34.35
2022-12-20T18:21:41.966Z,33.35
2022-12-20T18:24:11.981Z,32.67
2022-12-20T18:29:05.018Z,30.10
2022-12-20T18:31:34.285Z,31.52
2022-12-20T18:34:01.970Z,31.17
2022-12-20T18:36:34.693Z,31.73
2022-12-20T18:39:05.319Z,31.60
2022-12-20T18:41:32.454Z,32.42
2022-12-20T18:44:01.074Z,32.80
2022-12-20T18:46:28.368Z,31.02
2022-12-20T18:48:57.201Z,31.17
2022-12-20T18:51:27.164Z,32.72
2022-12-20T18:53:55.752Z,35.72
2022-12-20T18:56:28.765Z,32.78
2022-12-20T18:58:56.964Z,31.48
2022-12-20T19:01:26.152Z,31.75
2022-12-20T19:03:53.912Z,30.85
2022-12-20T19:06:21.588Z,31.58
2022-12-20T19:08:48.864Z,31.52
2022-12-20T19:11:18.608Z,31.70
2022-12-20T19:13:45.497Z,34.90
2022-12-20T19:16:13.189Z,31.38
2022-12-20T19:18:41.110Z,33.28
2022-12-20T19:21:10.729Z,31.95
2022-12-20T19:23:39.033Z,32.38
2022-12-20T19:26:08.657Z,31.98
2022-12-20T19:28:36.223Z,33.58
2022-12-20T19:31:14.231Z,35.80
2022-12-20T19:33:46.396Z,33.83
2022-12-20T19:36:18.247Z,35.05
2022-12-20T19:38:47.335Z,37.70
2022-12-20T19:41:14.588Z,36.80
2022-12-20T19:43:41.918Z,34.58
2022-12-20T19:46:09.681Z,35.70
2022-12-20T19:48:37.072Z,36.33
2022-12-20T19:51:06.566Z,36.22
2022-12-20T19:53:33.108Z,26.08
2022-12-20T19:55:59.662Z,35.85
2022-12-20T19:58:26.167Z,35.85
2022-12-20T20:00:52.973Z,34.28
2022-12-20T20:03:20.574Z,35.85
2022-12-20T20:05:47.663Z,38.97
2022-12-20T20:08:15.305Z,34.88
2022-12-20T20:10:44.903Z,40.05
2022-12-20T20:13:11.869Z,42.67
2022-12-20T20:15:38.481Z,39.95
2022-12-20T20:18:05.226Z,37.38
2022-12-20T20:20:32.911Z,37.55
2022-12-20T20:22:59.447Z,35.70
2022-12-20T20:25:26.379Z,34.45
2022-12-20T20:27:52.910Z,35.38
2022-12-20T20:30:19.526Z,35.13
2022-12-20T20:32:46.193Z,37.85
2022-12-20T20:35:12.732Z,38.40
2022-12-20T20:37:39.883Z,35.05
2022-12-20T20:40:07.243Z,33.33
2022-12-20T20:42:33.747Z,35.78
2022-12-20T20:45:00.253Z,32.38
2022-12-20T20:47:26.773Z,33.70
2022-12-20T20:49:53.275Z,35.17
2022-12-20T20:52:20.027Z,33.58
2022-12-20T20:54:46.657Z,34.35
2022-12-20T20:57:13.372Z,35.10
2022-12-20T20:59:40.116Z,35.38
2022-12-20T21:02:07.131Z,33.28
2022-12-20T21:04:33.754Z,35.47
2022-12-20T21:07:00.427Z,34.15
2022-12-20T21:09:26.974Z,34.92
2022-12-20T21:11:53.636Z,33.03
2022-12-20T21:14:36.446Z,32.17
2022-12-20T21:17:06.820Z,33.55
2022-12-20T21:19:33.317Z,33.00
2022-12-20T21:22:01.040Z,32.97
2022-12-20T21:24:27.614Z,33.10
2022-12-20T21:26:55.273Z,34.25
2022-12-20T21:29:22.618Z,32.90
2022-12-20T21:31:49.221Z,31.98
2022-12-20T21:34:15.737Z,33.17
2022-12-20T21:36:42.679Z,31.98
2022-12-20T21:39:12.475Z,33.15
2022-12-20T21:41:39.717Z,33.90
2022-12-20T21:44:06.217Z,32.35
2022-12-20T21:46:33.007Z,32.42
2022-12-20T21:48:59.906Z,33.25
2022-12-20T21:51:27.651Z,33.97
2022-12-20T21:53:56.525Z,31.48
2022-12-20T21:56:25.161Z,33.80
2022-12-20T21:58:52.037Z,33.53
2022-12-20T22:01:21.061Z,33.97
2022-12-20T22:03:52.224Z,28.03
2022-12-20T22:06:19.106Z,31.98
2022-12-20T22:08:45.905Z,34.10
2022-12-20T22:11:18.352Z,49.00
2022-12-20T22:13:46.302Z,35.28
2022-12-20T22:16:17.988Z,33.50
2022-12-20T22:18:49.850Z,34.67
2022-12-20T22:21:17.856Z,33.08
2022-12-20T22:23:44.743Z,32.65
2022-12-20T22:26:16.740Z,34.00
2022-12-20T22:28:49.840Z,31.75
2022-12-20T22:31:17.671Z,33.33
2022-12-20T22:33:44.898Z,34.05
2022-12-20T22:36:13.507Z,40.08
2022-12-20T22:38:40.824Z,36.65
2022-12-20T22:41:10.371Z,36.70
2022-12-20T22:43:38.648Z,34.00
2022-12-20T22:46:05.683Z,34.88
2022-12-20T22:48:32.303Z,34.85
2022-12-20T22:51:04.521Z,35.65
2022-12-20T22:53:34.870Z,37.88
2022-12-20T22:56:02.350Z,38.60
2022-12-20T22:58:30.382Z,38.80
2022-12-20T23:01:02.649Z,38.72
2022-12-20T23:03:30.315Z,36.55
2022-12-20T23:05:59.425Z,35.90
2022-12-20T23:08:27.883Z,33.78
2022-12-20T23:11:13.010Z,35.42
2022-12-20T23:13:58.833Z,31.58
2022-12-20T23:16:25.939Z,31.48
2022-12-20T23:18:56.779Z,33.67
2022-12-20T23:21:42.343Z,31.70
2022-12-20T23:24:10.243Z,34.00
2022-12-20T23:26:38.420Z,31.67
2022-12-20T23:29:07.004Z,32.25
2022-12-20T23:31:33.909Z,32.05
2022-12-20T23:34:01.768Z,33.28
2022-12-20T23:36:29.152Z,32.03
2022-12-20T23:38:56.783Z,36.03
2022-12-20T23:41:23.759Z,34.50
2022-12-20T23:43:50.432Z,34.00
2022-12-20T23:46:18.937Z,31.67
2022-12-20T23:48:45.560Z,33.42
2022-12-20T23:51:12.482Z,34.20
2022-12-20T23:53:39.348Z,34.47
2022-12-20T23:56:18.188Z,35.40
2022-12-20T23:58:46.228Z,35.50
